Time;durP1;ratioP1;P1;durP2;ratioP2;P2;SDS_P1;SDS_P2;PMS_P1;PMS_P2;Temp;Humidity;BMP_temperature;BMP_pressure;BME280_temperature;BME280_humidity;BME280_pressure;Samples;Min_cycle;Max_cycle;Signal;HPM_P1;HPM_P2
2021/01/02 00:01:00;;;;;;;26.02;10.02;;;4.40;99.90;;;;;;4987977;28;20026;-77
2021/01/02 00:04:11;;;;;;;31.15;12.77;;;4.40;99.90;;;;;;4987428;28;20494;-79
2021/01/02 00:07:15;;;;;;;19.60;7.93;;;4.40;99.90;;;;;;4987380;28;20460;-80
2021/01/02 00:09:43;;;;;;;25.38;10.35;;;4.40;99.90;;;;;;5004428;28;20030;-77
2021/01/02 00:12:47;;;;;;;20.23;9.52;;;4.40;99.90;;;;;;5005162;28;20050;-77
2021/01/02 00:15:23;;;;;;;22.92;10.10;;;4.40;99.90;;;;;;4987347;28;20050;-77
2021/01/02 00:18:22;;;;;;;18.55;10.13;;;4.40;99.90;;;;;;5004364;28;20034;-77
2021/01/02 00:21:06;;;;;;;23.92;11.13;;;4.40;99.90;;;;;;5021478;28;20028;-78
2021/01/02 00:24:15;;;;;;;15.40;7.60;;;4.40;99.90;;;;;;5023962;28;20077;-79
2021/01/02 00:26:43;;;;;;;12.60;7.90;;;4.40;99.90;;;;;;5024295;28;20052;-77
2021/01/02 00:29:22;;;;;;;21.20;9.65;;;4.40;99.90;;;;;;5006400;28;20041;-79
2021/01/02 00:32:21;;;;;;;13.18;7.60;;;4.40;99.90;;;;;;5006484;28;20049;-78
2021/01/02 00:34:50;;;;;;;15.70;8.40;;;4.40;99.90;;;;;;5009718;28;20026;-79
2021/01/02 00:37:25;;;;;;;17.80;8.20;;;4.40;99.90;;;;;;5009605;28;20022;-79
2021/01/02 00:40:13;;;;;;;21.92;8.60;;;4.40;99.90;;;;;;5009620;28;20057;-79
2021/01/02 00:42:44;;;;;;;18.50;8.65;;;4.40;99.90;;;;;;5010016;28;20022;-78
2021/01/02 00:45:12;;;;;;;24.48;9.93;;;4.50;99.90;;;;;;5009465;28;20042;-78
2021/01/02 09:10:37;;;;;;;22.67;9.38;;;4.70;99.90;;;;;;1278084;26;20934;-79
2021/01/02 09:13:11;;;;;;;23.25;10.65;;;4.70;99.90;;;;;;4970835;28;20035;-81
2021/01/02 09:15:45;;;;;;;25.33;10.88;;;4.80;99.90;;;;;;4986198;28;20038;-81
2021/01/02 09:18:11;;;;;;;;;;;4.70;99.90;;;;;;4952447;29;20156;-80
2021/01/02 09:20:37;;;;;;;29.08;11.32;;;4.80;99.90;;;;;;4968863;29;19907;-82
2021/01/02 09:23:04;;;;;;;24.38;9.90;;;4.80;99.90;;;;;;4951794;29;20034;-83
2021/01/02 09:25:31;;;;;;;22.73;8.60;;;4.80;99.90;;;;;;4951023;29;20047;-83
2021/01/02 09:28:10;;;;;;;28.52;10.63;;;4.80;99.90;;;;;;4951537;29;20119;-80
2021/01/02 09:30:35;;;;;;;25.08;9.88;;;4.80;99.90;;;;;;4950340;29;20027;-81
2021/01/02 09:33:01;;;;;;;33.00;10.80;;;4.80;99.90;;;;;;4950356;29;20082;-83
2021/01/02 09:35:26;;;;;;;25.67;10.50;;;4.80;99.90;;;;;;4961286;28;20058;-81
2021/01/02 09:37:52;;;;;;;18.95;9.30;;;4.80;99.90;;;;;;4969873;28;20027;-81
2021/01/02 09:40:20;;;;;;;23.23;10.00;;;4.80;99.90;;;;;;4987126;28;20046;-82
2021/01/02 09:42:45;;;;;;;18.80;8.73;;;4.80;99.90;;;;;;4969872;28;20110;-81
2021/01/02 09:45:12;;;;;;;24.20;10.07;;;4.80;99.90;;;;;;4969691;28;20554;-81
2021/01/02 09:47:37;;;;;;;27.33;10.98;;;4.80;99.90;;;;;;4983769;28;20035;-80
2021/01/02 09:50:04;;;;;;;23.05;10.00;;;4.80;99.90;;;;;;4976324;28;20031;-79
2021/01/02 09:52:29;;;;;;;22.67;9.45;;;4.80;99.90;;;;;;4969233;28;20030;-79
2021/01/02 09:54:55;;;;;;;20.65;9.90;;;4.80;99.90;;;;;;4969528;28;20393;-82
2021/01/02 09:57:21;;;;;;;23.42;9.75;;;4.80;99.90;;;;;;4986814;28;20047;-79
2021/01/02 09:59:46;;;;;;;17.88;9.02;;;4.80;99.90;;;;;;4968972;28;20031;-83
2021/01/02 10:02:12;;;;;;;19.15;8.68;;;4.80;99.90;;;;;;4987312;28;20058;-84
2021/01/02 10:04:44;;;;;;;18.23;8.50;;;4.80;99.90;;;;;;4969658;28;20057;-81
2021/01/02 10:07:10;;;;;;;20.65;9.40;;;4.90;99.90;;;;;;4969239;28;20022;-80
2021/01/02 10:09:44;;;;;;;22.02;9.40;;;4.90;99.90;;;;;;4969770;28;20047;-81
2021/01/02 10:12:11;;;;;;;18.65;9.70;;;4.90;99.90;;;;;;4969319;28;20072;-79
2021/01/02 10:14:37;;;;;;;19.25;9.95;;;4.90;99.90;;;;;;4986849;28;20042;-81
2021/01/02 10:17:04;;;;;;;23.48;11.48;;;5.00;99.90;;;;;;4987286;28;20635;-78
2021/01/02 10:19:31;;;;;;;22.52;9.40;;;5.00;99.90;;;;;;4969193;28;20037;-81
2021/01/02 10:21:57;;;;;;;21.15;9.70;;;5.00;99.90;;;;;;4967363;28;20039;-79
2021/01/02 10:24:23;;;;;;;32.28;11.23;;;5.00;99.90;;;;;;4967385;29;20024;-79
2021/01/02 10:26:48;;;;;;;20.35;8.43;;;5.00;99.90;;;;;;4967151;29;20032;-80
2021/01/02 10:29:14;;;;;;;23.80;9.50;;;5.00;99.90;;;;;;4950021;29;20031;-79
2021/01/02 10:31:40;;;;;;;19.25;10.20;;;5.10;99.90;;;;;;4950088;29;20518;-80
2021/01/02 10:34:06;;;;;;;25.33;9.63;;;5.10;99.90;;;;;;4967051;29;20115;-81
2021/01/02 10:36:32;;;;;;;20.67;7.88;;;5.10;99.90;;;;;;4949969;29;20043;-79
2021/01/02 10:38:57;;;;;;;27.60;10.07;;;5.10;99.90;;;;;;4949970;29;20035;-81
2021/01/02 10:41:23;;;;;;;27.73;10.43;;;5.10;99.90;;;;;;4950956;29;20118;-81
2021/01/02 10:43:48;;;;;;;20.27;7.60;;;5.10;99.90;;;;;;4967122;29;20027;-80
2021/01/02 10:46:15;;;;;;;17.40;9.05;;;5.20;99.90;;;;;;4967175;29;20059;-79
2021/01/02 10:48:40;;;;;;;23.38;9.38;;;5.10;99.90;;;;;;4966927;29;20031;-80
2021/01/02 10:51:16;;;;;;;18.05;8.10;;;5.10;99.90;;;;;;4949696;29;20031;-81
2021/01/02 10:53:42;;;;;;;15.73;8.10;;;5.10;99.90;;;;;;4949712;29;20035;-81
2021/01/02 10:56:12;;;;;;;18.50;9.40;;;5.10;99.90;;;;;;4966710;29;20039;-80
2021/01/02 10:58:37;;;;;;;22.95;10.68;;;5.20;99.90;;;;;;4949760;29;20027;-80
2021/01/02 11:01:05;;;;;;;26.35;9.60;;;5.20;99.90;;;;;;4966960;29;20045;-81
2021/01/02 11:03:31;;;;;;;27.77;8.98;;;5.10;99.90;;;;;;4949311;29;20471;-82
2021/01/02 11:05:58;;;;;;;20.85;9.40;;;5.10;99.90;;;;;;4949599;29;20027;-82
2021/01/02 11:08:23;;;;;;;27.08;10.43;;;5.30;99.90;;;;;;4966254;29;20031;-80
2021/01/02 11:10:49;;;;;;;18.02;7.50;;;5.10;99.90;;;;;;4946403;29;20079;-82
2021/01/02 11:13:14;;;;;;;16.75;8.60;;;5.20;99.90;;;;;;4945387;29;20036;-79
2021/01/02 11:15:40;;;;;;;17.98;8.15;;;5.20;99.90;;;;;;4965351;29;20094;-80
2021/01/02 11:18:06;;;;;;;21.35;10.30;;;5.20;99.90;;;;;;4948724;29;20027;-80
2021/01/02 11:20:31;;;;;;;21.67;9.57;;;5.20;99.90;;;;;;4966994;29;20511;-79
2021/01/02 11:22:57;;;;;;;26.60;9.85;;;5.20;99.90;;;;;;4953876;28;20442;-84
2021/01/02 11:25:22;;;;;;;21.27;8.23;;;5.20;99.90;;;;;;4985114;28;20027;-80
2021/01/02 11:27:48;;;;;;;23.88;7.95;;;5.20;99.90;;;;;;4967521;28;20046;-81
2021/01/02 11:30:14;;;;;;;25.08;9.52;;;5.20;99.90;;;;;;4984970;28;20027;-80
2021/01/02 11:32:41;;;;;;;24.85;9.10;;;5.20;99.90;;;;;;4985071;28;20031;-80
2021/01/02 11:35:07;;;;;;;16.73;8.88;;;5.20;99.90;;;;;;4985400;28;20026;-80
2021/01/02 11:37:33;;;;;;;22.38;10.63;;;5.20;99.90;;;;;;4985143;28;20043;-82
2021/01/02 11:39:58;;;;;;;23.35;9.38;;;5.20;99.90;;;;;;4967783;28;20038;-78
2021/01/02 11:42:24;;;;;;;18.38;8.43;;;5.20;99.90;;;;;;4967614;28;20019;-79
2021/01/02 11:44:49;;;;;;;21.13;7.82;;;5.20;99.90;;;;;;4967202;28;20077;-78
2021/01/02 11:47:15;;;;;;;31.00;9.43;;;5.20;99.90;;;;;;4985151;28;20030;-79
2021/01/02 11:49:41;;;;;;;28.50;13.43;;;5.20;99.90;;;;;;4985073;28;20034;-79
2021/01/02 11:52:08;;;;;;;25.52;11.00;;;5.30;99.90;;;;;;4968002;28;20421;-79
2021/01/02 11:54:35;;;;;;;25.85;9.85;;;5.20;99.90;;;;;;4968107;28;20034;-79
2021/01/02 11:57:05;;;;;;;27.20;10.35;;;5.20;99.90;;;;;;4966856;28;20046;-80
2021/01/02 11:59:31;;;;;;;27.83;10.65;;;5.20;99.90;;;;;;4967477;28;20029;-80
2021/01/02 12:02:00;;;;;;;22.02;9.07;;;5.20;99.90;;;;;;4985073;28;20031;-80
2021/01/02 12:04:28;;;;;;;20.45;9.32;;;5.30;99.90;;;;;;4967535;28;20077;-81
2021/01/02 12:06:54;;;;;;;16.15;8.80;;;5.30;99.90;;;;;;4967234;28;20022;-79
2021/01/02 12:09:23;;;;;;;26.15;10.15;;;5.30;99.90;;;;;;4967582;28;20154;-82
2021/01/02 12:11:50;;;;;;;25.60;10.85;;;5.30;99.90;;;;;;4984266;28;20039;-81
2021/01/02 12:14:19;;;;;;;25.55;10.88;;;5.30;99.90;;;;;;4967036;28;20053;-81
2021/01/02 12:16:47;;;;;;;25.75;9.88;;;5.30;99.90;;;;;;4965789;28;20129;-79
2021/01/02 12:19:17;;;;;;;16.00;9.07;;;5.30;99.90;;;;;;4964305;28;20031;-79
2021/01/02 12:21:43;;;;;;;18.67;8.75;;;5.30;99.90;;;;;;4967204;28;20027;-81
2021/01/02 12:24:09;;;;;;;24.25;9.35;;;5.30;99.90;;;;;;4985028;28;20055;-78
2021/01/02 12:26:42;;;;;;;33.03;13.27;;;5.30;99.90;;;;;;4983671;28;20053;-79
2021/01/02 12:29:07;;;;;;;24.85;11.40;;;5.30;99.90;;;;;;4966683;28;20098;-79
2021/01/02 12:31:33;;;;;;;26.65;11.13;;;5.30;99.90;;;;;;4971136;28;20065;-78
2021/01/02 12:33:58;;;;;;;25.92;9.98;;;5.30;99.90;;;;;;4986580;28;20033;-78
2021/01/02 12:36:39;;;;;;;22.50;10.75;;;5.40;99.90;;;;;;4987401;28;20067;-78
2021/01/02 12:39:06;;;;;;;19.92;9.20;;;5.30;99.90;;;;;;4970522;28;20495;-77
2021/01/02 12:41:32;;;;;;;24.15;12.23;;;5.30;99.90;;;;;;4970093;28;20027;-78
2021/01/02 12:43:58;;;;;;;19.83;8.27;;;5.40;99.90;;;;;;4970565;28;20058;-79
2021/01/02 12:46:23;;;;;;;31.45;10.13;;;5.40;99.90;;;;;;4970813;28;20090;-77
2021/01/02 12:48:49;;;;;;;24.83;9.70;;;5.40;99.90;;;;;;4987873;28;20117;-78
2021/01/02 12:51:20;;;;;;;19.92;9.50;;;5.40;99.90;;;;;;4968714;28;20050;-81
2021/01/02 12:53:46;;;;;;;19.00;9.38;;;5.40;99.90;;;;;;4970441;28;20048;-79
2021/01/02 12:56:11;;;;;;;21.30;10.02;;;5.50;99.90;;;;;;4987039;28;20474;-79
2021/01/02 12:58:39;;;;;;;21.00;8.82;;;5.40;99.90;;;;;;4988114;28;20045;-79
2021/01/02 13:01:04;;;;;;;26.17;10.40;;;5.60;99.90;;;;;;4970290;28;20030;-78
2021/01/02 13:03:30;;;;;;;20.80;8.07;;;5.40;99.90;;;;;;4987824;28;20027;-79
2021/01/02 13:05:55;;;;;;;25.73;11.02;;;5.40;99.90;;;;;;4988167;28;20066;-79
2021/01/02 13:08:21;;;;;;;17.95;9.02;;;5.40;99.90;;;;;;4970288;28;20502;-78
2021/01/02 13:10:46;;;;;;;16.70;8.20;;;5.60;99.90;;;;;;4987429;28;20046;-78
2021/01/02 13:13:12;;;;;;;16.52;9.45;;;5.50;99.90;;;;;;4970384;28;20050;-77
2021/01/02 13:15:38;;;;;;;16.27;7.55;;;5.60;99.90;;;;;;4987532;28;20042;-79
2021/01/02 13:18:03;;;;;;;19.45;8.73;;;5.50;99.90;;;;;;4970656;28;20023;-79
2021/01/02 13:20:29;;;;;;;24.38;9.10;;;5.50;99.90;;;;;;4987881;28;20026;-78
2021/01/02 13:22:54;;;;;;;19.08;8.98;;;5.50;99.90;;;;;;4970084;28;20027;-78
2021/01/02 13:25:20;;;;;;;22.60;9.23;;;5.50;99.90;;;;;;4970209;28;20552;-79
2021/01/02 13:27:46;;;;;;;18.95;8.07;;;5.60;99.90;;;;;;4970111;28;20041;-79
2021/01/02 13:30:13;;;;;;;29.15;10.02;;;5.50;99.90;;;;;;4969848;28;20033;-79
2021/01/02 13:32:39;;;;;;;20.30;9.05;;;5.50;99.90;;;;;;4970274;28;20026;-79
2021/01/02 13:35:05;;;;;;;29.00;11.10;;;5.60;99.90;;;;;;4986639;28;20122;-77
2021/01/02 13:37:31;;;;;;;21.15;9.68;;;5.60;99.90;;;;;;4987154;28;20057;-79
2021/01/02 13:39:57;;;;;;;17.58;8.13;;;5.60;99.90;;;;;;4987398;28;20035;-78
2021/01/02 13:42:23;;;;;;;21.85;9.82;;;5.60;99.90;;;;;;4986297;28;20050;-80
2021/01/02 13:44:50;;;;;;;15.77;8.45;;;5.60;99.90;;;;;;4969802;28;20026;-77
2021/01/02 13:47:18;;;;;;;17.88;9.75;;;5.60;99.90;;;;;;4969881;28;20038;-81
2021/01/02 13:49:48;;;;;;;20.05;8.70;;;5.60;99.90;;;;;;4969541;28;20027;-80
2021/01/02 13:52:14;;;;;;;17.90;8.88;;;5.60;99.90;;;;;;4969727;28;20094;-79
2021/01/02 13:54:40;;;;;;;16.60;8.75;;;5.50;99.90;;;;;;4969915;28;20027;-80
2021/01/02 13:57:06;;;;;;;18.92;8.80;;;5.50;99.90;;;;;;4969486;28;20967;-79
2021/01/02 13:59:32;;;;;;;21.77;10.88;;;5.60;99.90;;;;;;4969633;28;20118;-79
2021/01/02 14:01:59;;;;;;;25.55;11.48;;;5.60;99.90;;;;;;4969570;28;20549;-79
2021/01/02 14:04:26;;;;;;;20.40;9.23;;;5.60;99.90;;;;;;4986836;28;20089;-79
2021/01/02 14:06:54;;;;;;;20.58;10.98;;;5.60;99.90;;;;;;4968825;28;20031;-79
2021/01/02 14:09:21;;;;;;;22.50;10.38;;;5.60;99.90;;;;;;4969197;28;20091;-79
2021/01/02 14:11:46;;;;;;;16.70;9.05;;;5.60;99.90;;;;;;4965544;29;20043;-79
2021/01/02 14:14:12;;;;;;;20.15;8.88;;;5.60;99.90;;;;;;4966259;29;20086;-79
2021/01/02 14:16:49;;;;;;;21.63;9.52;;;5.60;99.90;;;;;;4966034;29;20039;-78
2021/01/02 14:19:15;;;;;;;23.88;9.73;;;5.60;99.90;;;;;;4965445;29;20027;-79
2021/01/02 14:21:49;;;;;;;32.22;9.73;;;5.60;99.90;;;;;;4967292;28;20452;-80
2021/01/02 14:24:16;;;;;;;19.20;7.95;;;5.60;99.90;;;;;;4966904;28;20077;-79
2021/01/02 14:26:41;;;;;;;17.70;9.65;;;5.70;99.90;;;;;;4967248;28;20039;-81
2021/01/02 14:29:07;;;;;;;19.98;9.05;;;5.70;99.90;;;;;;4966959;28;20098;-79
2021/01/02 14:31:34;;;;;;;23.48;9.57;;;5.70;99.90;;;;;;4967065;28;20434;-79
2021/01/02 14:34:00;;;;;;;25.70;9.93;;;5.60;99.90;;;;;;4965452;29;20028;-78
2021/01/02 14:36:27;;;;;;;19.40;8.70;;;5.70;99.90;;;;;;4965783;29;20080;-78
2021/01/02 14:38:52;;;;;;;21.45;9.30;;;5.70;99.90;;;;;;4964567;29;20027;-78
2021/01/02 14:41:22;;;;;;;28.35;10.52;;;5.70;99.90;;;;;;4965282;29;20035;-78
2021/01/02 14:43:48;;;;;;;18.58;8.32;;;5.70;99.90;;;;;;4964745;29;20121;-80
2021/01/02 14:46:14;;;;;;;17.55;8.93;;;5.60;99.90;;;;;;4964452;29;20038;-79
2021/01/02 14:48:39;;;;;;;19.33;7.88;;;5.70;99.90;;;;;;4966933;28;20083;-79
2021/01/02 14:51:05;;;;;;;17.33;7.70;;;5.70;99.90;;;;;;4965911;29;20059;-79
2021/01/02 14:53:30;;;;;;;13.88;6.15;;;5.60;99.90;;;;;;4965203;28;20035;-79
2021/01/02 14:55:56;;;;;;;15.70;7.57;;;5.60;99.90;;;;;;4965040;29;20375;-79
2021/01/02 14:58:22;;;;;;;22.25;8.25;;;5.60;99.90;;;;;;4966837;28;20028;-79
2021/01/02 15:00:48;;;;;;;18.38;7.65;;;5.60;99.90;;;;;;4965227;29;20094;-80
2021/01/02 15:03:13;;;;;;;16.40;8.15;;;5.50;99.90;;;;;;4965309;29;20091;-79
2021/01/02 15:05:39;;;;;;;15.45;7.82;;;5.50;99.90;;;;;;4965447;29;20062;-80
2021/01/02 15:08:05;;;;;;;18.27;7.95;;;5.50;99.90;;;;;;4965126;29;20047;-81
2021/01/02 15:10:31;;;;;;;17.27;7.50;;;5.50;99.90;;;;;;4967888;28;20522;-79
2021/01/02 15:12:57;;;;;;;12.55;6.07;;;5.50;99.90;;;;;;4968540;28;20067;-80
2021/01/02 15:15:24;;;;;;;12.00;6.18;;;5.50;99.90;;;;;;4968523;28;20034;-79
2021/01/02 15:17:50;;;;;;;12.93;7.22;;;5.60;99.90;;;;;;4986164;28;20031;-79
2021/01/02 15:20:16;;;;;;;21.38;7.60;;;5.50;99.90;;;;;;4985353;28;20042;-79
2021/01/02 15:22:42;;;;;;;18.27;7.65;;;5.50;99.90;;;;;;4968171;28;20026;-82
2021/01/02 15:25:09;;;;;;;11.23;6.53;;;5.60;99.90;;;;;;4968532;28;20026;-80
2021/01/02 15:27:35;;;;;;;11.57;5.93;;;5.50;99.90;;;;;;4968286;28;20049;-79
2021/01/02 15:30:03;;;;;;;20.65;8.50;;;5.60;99.90;;;;;;4986113;28;20026;-78
2021/01/02 15:32:29;;;;;;;12.95;7.45;;;5.60;99.90;;;;;;4968038;28;20031;-80
2021/01/02 15:34:55;;;;;;;17.27;6.80;;;5.60;99.90;;;;;;4985367;28;20026;-77
2021/01/02 15:37:20;;;;;;;16.92;7.32;;;5.60;99.90;;;;;;4985536;28;20038;-79
2021/01/02 15:39:46;;;;;;;11.52;6.50;;;5.50;99.90;;;;;;4985311;28;20034;-78
2021/01/02 15:42:13;;;;;;;16.17;7.93;;;5.50;99.90;;;;;;4985492;28;20083;-80
2021/01/02 15:44:39;;;;;;;16.05;7.47;;;5.50;99.90;;;;;;4985720;28;20033;-80
2021/01/02 15:47:11;;;;;;;14.13;7.68;;;5.70;99.90;;;;;;4967608;28;20452;-80
2021/01/02 15:49:37;;;;;;;20.00;7.78;;;5.50;99.90;;;;;;4985228;28;20083;-79
2021/01/02 15:52:32;;;;;;;19.95;7.70;;;5.50;99.90;;;;;;4968009;28;20505;-79
2021/01/02 15:54:57;;;;;;;12.63;6.25;;;5.50;99.90;;;;;;4962736;29;20050;-78
2021/01/02 15:57:23;;;;;;;13.95;6.40;;;5.50;99.90;;;;;;4948426;29;20075;-80
2021/01/02 15:59:49;;;;;;;14.32;6.35;;;5.50;99.90;;;;;;4949090;29;20030;-77
2021/01/02 16:02:15;;;;;;;15.23;6.40;;;5.50;99.90;;;;;;4965944;29;20050;-79
2021/01/02 16:04:41;;;;;;;15.18;7.50;;;5.50;99.90;;;;;;4966195;28;20023;-79
2021/01/02 16:07:09;;;;;;;14.80;6.93;;;5.50;99.90;;;;;;4970440;29;20033;-81
2021/01/02 16:09:36;;;;;;;23.08;8.45;;;5.40;99.90;;;;;;4952411;29;20142;-78
2021/01/02 16:12:06;;;;;;;11.32;6.03;;;5.40;99.90;;;;;;4970004;29;20070;-80
2021/01/02 16:14:33;;;;;;;13.68;7.13;;;5.40;99.90;;;;;;4969831;29;20036;-79
2021/01/02 16:16:59;;;;;;;16.20;7.97;;;5.50;99.90;;;;;;4969219;29;20341;-79
2021/01/02 16:19:28;;;;;;;15.50;8.05;;;5.50;99.90;;;;;;4969914;29;20067;-80
2021/01/02 16:21:57;;;;;;;13.18;6.78;;;5.40;99.90;;;;;;4969538;29;20034;-79
2021/01/02 16:24:22;;;;;;;14.63;7.20;;;5.40;99.90;;;;;;4969435;29;20090;-78
2021/01/02 16:26:49;;;;;;;13.38;6.75;;;5.40;99.90;;;;;;4969747;29;20042;-78
2021/01/02 16:29:27;;;;;;;13.27;6.63;;;5.50;99.90;;;;;;4969627;29;20027;-79
2021/01/02 16:31:55;;;;;;;16.25;7.38;;;5.60;99.90;;;;;;4969464;29;20029;-79
2021/01/02 16:34:27;;;;;;;15.73;6.80;;;5.50;99.90;;;;;;4969474;29;20110;-77
2021/01/02 16:36:54;;;;;;;14.38;6.72;;;5.50;99.90;;;;;;4951984;29;20122;-79
2021/01/02 16:39:20;;;;;;;21.50;8.07;;;5.50;99.90;;;;;;4951581;29;20490;-78
2021/01/02 16:41:46;;;;;;;14.48;6.97;;;5.50;99.90;;;;;;4969396;29;20035;-77
2021/01/02 16:44:13;;;;;;;12.90;6.63;;;5.50;99.90;;;;;;4951648;29;20142;-78
2021/01/02 16:46:39;;;;;;;22.73;7.85;;;5.50;99.90;;;;;;4952318;29;20027;-78
2021/01/02 16:49:05;;;;;;;15.05;7.75;;;5.50;99.90;;;;;;4952195;29;20034;-79
2021/01/02 16:51:34;;;;;;;13.85;5.88;;;5.50;99.90;;;;;;4951780;29;20023;-78
2021/01/02 16:54:00;;;;;;;18.35;6.53;;;5.50;99.90;;;;;;4969658;29;20060;-79
2021/01/02 16:56:27;;;;;;;13.93;7.22;;;5.50;99.90;;;;;;4951772;29;20090;-78
2021/01/02 16:58:57;;;;;;;11.73;6.00;;;5.50;99.90;;;;;;4968681;29;20031;-78
2021/01/02 17:01:23;;;;;;;15.40;7.43;;;5.50;99.90;;;;;;4952045;29;20538;-78
2021/01/02 17:03:50;;;;;;;18.77;7.60;;;5.40;99.90;;;;;;4951671;29;20027;-77
2021/01/02 17:06:19;;;;;;;14.10;6.30;;;5.40;99.90;;;;;;4968596;29;20120;-79
2021/01/02 17:08:45;;;;;;;20.45;8.15;;;5.40;99.90;;;;;;4968706;29;20027;-79
2021/01/02 17:11:18;;;;;;;15.00;7.53;;;5.40;99.90;;;;;;4951392;29;20526;-78
2021/01/02 17:13:44;;;;;;;16.85;7.35;;;5.40;99.90;;;;;;4968494;29;20023;-78
2021/01/02 17:16:09;;;;;;;14.90;6.75;;;5.40;99.90;;;;;;4967791;28;20047;-79
2021/01/02 17:18:37;;;;;;;17.80;7.88;;;5.40;99.90;;;;;;4968523;29;20031;-78
2021/01/02 17:21:02;;;;;;;12.90;6.97;;;5.40;99.90;;;;;;4968785;29;20452;-79
2021/01/02 17:23:28;;;;;;;19.30;8.43;;;5.40;99.90;;;;;;4968739;29;20503;-77
2021/01/02 17:25:54;;;;;;;17.02;6.70;;;5.40;99.90;;;;;;4968419;29;20024;-78
2021/01/02 17:28:19;;;;;;;12.30;6.28;;;5.40;99.90;;;;;;4968506;29;20041;-78
2021/01/02 17:30:45;;;;;;;14.25;7.57;;;5.40;99.90;;;;;;4967291;29;20035;-78
2021/01/02 17:33:10;;;;;;;16.13;7.20;;;5.40;99.90;;;;;;4967225;29;20114;-80
2021/01/02 17:35:36;;;;;;;12.75;7.03;;;5.40;99.90;;;;;;4967118;29;20038;-79
2021/01/02 17:38:01;;;;;;;14.35;7.32;;;5.40;99.90;;;;;;4968420;29;20035;-78
2021/01/02 17:40:28;;;;;;;17.10;7.40;;;5.50;99.90;;;;;;4950784;29;20094;-78
2021/01/02 17:42:54;;;;;;;13.63;7.43;;;5.30;99.90;;;;;;4968390;29;20034;-78
2021/01/02 17:45:19;;;;;;;15.27;6.97;;;5.40;99.90;;;;;;4950985;29;20028;-79
2021/01/02 17:47:45;;;;;;;14.02;7.18;;;5.40;99.90;;;;;;4950534;29;20507;-80
2021/01/02 17:50:11;;;;;;;11.30;6.30;;;5.40;99.90;;;;;;4950995;29;20031;-78
2021/01/02 17:52:36;;;;;;;13.45;7.15;;;5.40;99.90;;;;;;4967946;29;20023;-80
2021/01/02 17:55:02;;;;;;;13.45;6.82;;;5.30;99.90;;;;;;4950822;29;20376;-80
2021/01/02 17:57:28;;;;;;;18.63;8.18;;;5.30;99.90;;;;;;4950613;29;20229;-78
2021/01/02 17:59:54;;;;;;;16.05;7.75;;;5.30;99.90;;;;;;4967776;29;20090;-82
2021/01/02 18:02:19;;;;;;;16.38;7.40;;;5.30;99.90;;;;;;4950582;29;20055;-80
2021/01/02 18:04:45;;;;;;;16.88;8.73;;;5.30;99.90;;;;;;4968091;29;20032;-79
2021/01/02 18:07:10;;;;;;;21.55;8.88;;;5.20;99.90;;;;;;4966786;29;20035;-78
2021/01/02 18:09:36;;;;;;;19.70;9.60;;;5.20;99.90;;;;;;4967963;29;20031;-78
2021/01/02 18:12:02;;;;;;;18.10;8.20;;;5.20;99.90;;;;;;4967805;29;20051;-80
2021/01/02 18:14:30;;;;;;;22.65;9.32;;;5.20;99.90;;;;;;4950344;29;20062;-79
2021/01/02 18:17:04;;;;;;;18.85;9.25;;;5.20;99.90;;;;;;4950752;29;20047;-76
2021/01/02 18:19:30;;;;;;;20.73;9.52;;;5.10;99.90;;;;;;4948943;29;20273;-77
2021/01/02 18:21:57;;;;;;;15.50;8.30;;;5.20;99.90;;;;;;4966877;29;20535;-79
2021/01/02 18:24:28;;;;;;;22.90;8.13;;;5.20;99.90;;;;;;4967273;29;20084;-80
2021/01/02 18:26:54;;;;;;;21.33;9.07;;;5.10;99.90;;;;;;4949764;29;20043;-79
2021/01/02 18:29:20;;;;;;;18.50;8.52;;;5.20;99.90;;;;;;4948978;29;20091;-78
2021/01/02 18:31:47;;;;;;;16.85;7.93;;;5.10;99.90;;;;;;4966205;29;20031;-79
2021/01/02 18:34:15;;;;;;;19.48;8.43;;;5.20;99.90;;;;;;4949397;29;20373;-78
2021/01/02 18:36:40;;;;;;;21.27;8.95;;;5.10;99.90;;;;;;4950193;29;20035;-80
2021/01/02 18:39:07;;;;;;;27.80;10.43;;;5.10;99.90;;;;;;4967399;29;20028;-80
2021/01/02 18:41:36;;;;;;;19.20;8.30;;;5.10;99.90;;;;;;4967241;29;20031;-78
2021/01/02 18:44:04;;;;;;;15.23;8.50;;;5.10;99.90;;;;;;4950135;29;20035;-80
2021/01/02 18:46:34;;;;;;;21.33;9.65;;;5.10;99.90;;;;;;4967187;29;20031;-80
2021/01/02 18:49:00;;;;;;;18.15;9.05;;;5.10;99.90;;;;;;4949559;29;20035;-79
2021/01/02 18:51:32;;;;;;;25.02;7.75;;;5.10;99.90;;;;;;4950132;29;20415;-79
2021/01/02 18:53:58;;;;;;;25.60;7.93;;;5.10;99.90;;;;;;4950080;29;20518;-79
2021/01/02 18:56:23;;;;;;;15.85;7.65;;;5.20;99.90;;;;;;4967016;29;20094;-78
2021/01/02 18:58:49;;;;;;;23.70;7.47;;;5.10;99.90;;;;;;4965872;29;20031;-81
2021/01/02 19:01:15;;;;;;;18.77;7.80;;;5.10;99.90;;;;;;4949922;29;20027;-78
2021/01/02 19:03:41;;;;;;;19.63;7.38;;;5.10;99.90;;;;;;4966451;29;20035;-79
2021/01/02 19:06:11;;;;;;;22.65;8.98;;;5.10;99.90;;;;;;4967068;29;20047;-80
2021/01/02 19:08:37;;;;;;;20.15;9.23;;;5.10;99.90;;;;;;4966511;29;20051;-80
2021/01/02 19:11:02;;;;;;;17.70;8.05;;;5.10;99.90;;;;;;4965584;29;20048;-80
2021/01/02 19:13:28;;;;;;;19.42;8.82;;;5.10;99.90;;;;;;4965884;29;20506;-81
2021/01/02 19:15:53;;;;;;;18.83;7.97;;;5.10;99.90;;;;;;4949320;29;20039;-81
2021/01/02 19:18:19;;;;;;;19.17;9.23;;;5.10;99.90;;;;;;4966751;29;20030;-79
2021/01/02 19:20:45;;;;;;;16.40;8.52;;;5.10;99.90;;;;;;4965618;29;20387;-79
2021/01/02 19:23:10;;;;;;;18.70;8.02;;;5.10;99.90;;;;;;4966590;29;20031;-80
2021/01/02 19:25:36;;;;;;;17.33;8.15;;;5.10;99.90;;;;;;4949483;29;20090;-79
2021/01/02 19:28:01;;;;;;;16.80;9.68;;;5.10;99.90;;;;;;4965519;29;20118;-79
2021/01/02 19:30:27;;;;;;;20.98;9.63;;;5.10;99.90;;;;;;4963589;29;20031;-82
2021/01/02 19:32:53;;;;;;;20.25;10.07;;;5.10;99.90;;;;;;4946620;29;20027;-80
2021/01/02 19:35:19;;;;;;;17.58;8.48;;;5.10;99.90;;;;;;4948613;29;20023;-80
2021/01/02 19:37:44;;;;;;;16.42;8.77;;;5.10;99.90;;;;;;4948386;29;20039;-80
2021/01/02 19:40:10;;;;;;;21.35;8.88;;;5.10;99.90;;;;;;4948367;29;20034;-81
2021/01/02 19:42:39;;;;;;;23.38;9.57;;;5.10;99.90;;;;;;4949363;29;20062;-81
2021/01/02 19:45:05;;;;;;;22.75;10.02;;;5.10;99.90;;;;;;4949125;29;20044;-80
2021/01/02 19:47:35;;;;;;;27.25;9.43;;;5.00;99.90;;;;;;4966895;29;20047;-80
2021/01/02 19:50:01;;;;;;;25.52;9.90;;;5.00;99.90;;;;;;4949197;29;20043;-80
2021/01/02 19:52:26;;;;;;;22.08;10.65;;;5.00;99.90;;;;;;4948657;29;20440;-81
2021/01/02 19:54:52;;;;;;;18.42;10.15;;;5.10;99.90;;;;;;4965213;29;20023;-82
2021/01/02 19:57:19;;;;;;;21.63;9.55;;;5.10;99.90;;;;;;4949046;29;20035;-80
2021/01/02 19:59:44;;;;;;;23.27;9.05;;;5.10;99.90;;;;;;4948908;29;20027;-81
2021/01/02 20:02:13;;;;;;;25.13;10.68;;;5.10;99.90;;;;;;4966441;29;20023;-81
2021/01/02 20:04:39;;;;;;;16.55;9.18;;;5.10;99.90;;;;;;4948830;29;20088;-81
2021/01/02 20:07:09;;;;;;;28.23;10.98;;;5.10;99.90;;;;;;4966478;29;20468;-82
2021/01/02 20:09:35;;;;;;;19.98;9.45;;;5.00;99.90;;;;;;4949499;29;20039;-82
2021/01/02 20:12:01;;;;;;;30.95;10.25;;;5.00;99.90;;;;;;4965703;29;20051;-81
2021/01/02 20:14:27;;;;;;;19.35;9.65;;;5.00;99.90;;;;;;4949335;29;20023;-82
2021/01/02 20:17:01;;;;;;;19.92;9.52;;;5.10;99.90;;;;;;4949526;29;20043;-81
2021/01/02 20:19:27;;;;;;;24.27;9.83;;;5.00;99.90;;;;;;4949751;29;20049;-81
2021/01/02 20:21:53;;;;;;;25.85;9.57;;;5.00;99.90;;;;;;4948962;29;20027;-81
2021/01/02 20:24:21;;;;;;;24.90;9.13;;;5.00;99.90;;;;;;4966149;29;20382;-82
2021/01/02 20:26:50;;;;;;;23.98;10.20;;;5.00;99.90;;;;;;4961083;28;20054;-80
2021/01/02 20:29:21;;;;;;;22.60;9.60;;;5.00;99.90;;;;;;4959047;28;20054;-81
2021/01/02 20:32:05;;;;;;;23.23;10.48;;;4.90;99.90;;;;;;4975525;28;20040;-80
2021/01/02 20:34:31;;;;;;;17.92;9.98;;;4.90;99.90;;;;;;4966301;28;20038;-81
2021/01/02 20:37:02;;;;;;;21.15;10.40;;;4.90;99.90;;;;;;4948209;29;20043;-80
2021/01/02 20:39:30;;;;;;;21.60;10.63;;;4.90;99.90;;;;;;4949017;29;20042;-80
2021/01/02 20:41:57;;;;;;;21.40;9.60;;;4.90;99.90;;;;;;4948878;29;20023;-81
2021/01/02 20:44:23;;;;;;;27.15;10.30;;;5.00;99.90;;;;;;4948908;29;20031;-81
2021/01/02 20:46:49;;;;;;;20.48;9.98;;;5.00;99.90;;;;;;4948953;29;20031;-80
2021/01/02 20:49:22;;;;;;;21.98;10.27;;;5.00;99.90;;;;;;4949073;29;20032;-82
2021/01/02 20:51:50;;;;;;;19.13;9.27;;;5.00;99.90;;;;;;4952312;29;20117;-82
2021/01/02 20:54:18;;;;;;;21.58;9.50;;;5.00;99.90;;;;;;4952376;29;20031;-82
2021/01/02 20:56:45;;;;;;;21.88;9.52;;;5.00;99.90;;;;;;4953022;29;20043;-83
2021/01/02 21:02:39;;;;;;;25.02;9.38;;;5.00;99.90;;;;;;4896183;23;20058;-81
2021/01/02 21:05:05;;;;;;;21.17;9.45;;;4.90;99.90;;;;;;5008129;28;20046;-81
2021/01/02 21:07:31;;;;;;;29.70;11.00;;;5.00;99.90;;;;;;4986642;28;20023;-82
2021/01/02 21:09:56;;;;;;;22.65;9.82;;;4.90;99.90;;;;;;4990064;28;20022;-79
2021/01/02 21:12:22;;;;;;;26.38;11.48;;;4.90;99.90;;;;;;5008182;28;20035;-78
2021/01/02 21:14:48;;;;;;;30.30;12.98;;;5.00;99.90;;;;;;5007904;28;20026;-78